createdAt,value
2018-09-04T00:00:33.978Z,36.80
2018-09-04T00:01:34.131Z,31.90
2018-09-04T00:02:34.284Z,32.00
2018-09-04T00:03:34.438Z,34.10
2018-09-04T00:04:34.592Z,31.70
2018-09-04T00:05:34.747Z,32.10
2018-09-04T00:06:34.900Z,30.80
2018-09-04T00:07:35.055Z,31.80
2018-09-04T00:08:35.207Z,32.20
2018-09-04T00:09:35.362Z,33.50
2018-09-04T00:10:35.514Z,33.30
2018-09-04T00:11:35.687Z,31.80
2018-09-04T00:12:35.841Z,30.20
2018-09-04T00:13:35.996Z,32.80
2018-09-04T00:14:36.149Z,33.80
2018-09-04T00:15:36.302Z,32.70
2018-09-04T00:16:36.454Z,30.90
2018-09-04T00:17:36.608Z,37.20
2018-09-04T00:18:36.769Z,35.90
2018-09-04T00:19:36.914Z,32.20
2018-09-04T00:20:37.068Z,35.00
2018-09-04T00:21:37.226Z,33.40
2018-09-04T00:22:37.378Z,35.70
2018-09-04T00:23:37.529Z,36.10
2018-09-04T00:24:37.682Z,36.20
2018-09-04T00:25:37.834Z,38.60
2018-09-04T00:26:37.987Z,37.10
2018-09-04T00:27:38.141Z,37.30
2018-09-04T00:28:38.292Z,35.10
2018-09-04T00:29:38.446Z,40.80
2018-09-04T00:30:38.597Z,41.00
2018-09-04T00:31:38.751Z,40.70
2018-09-04T00:32:38.907Z,38.70
2018-09-04T00:33:39.058Z,39.70
2018-09-04T00:34:39.213Z,41.20
2018-09-04T00:35:39.368Z,42.60
2018-09-04T00:36:39.523Z,39.70
2018-09-04T00:37:39.680Z,44.20
2018-09-04T00:38:39.833Z,41.10
2018-09-04T00:39:39.992Z,46.50
2018-09-04T00:40:40.140Z,35.50
2018-09-04T00:41:40.294Z,34.90
2018-09-04T00:42:40.446Z,46.60
2018-09-04T00:43:40.601Z,35.90
2018-09-04T00:44:40.755Z,38.40
2018-09-04T00:45:40.908Z,38.10
2018-09-04T00:46:41.060Z,47.10
2018-09-04T00:47:41.213Z,47.70
2018-09-04T00:48:41.368Z,43.40
2018-09-04T00:49:41.521Z,41.10
2018-09-04T00:50:41.673Z,38.50
2018-09-04T00:51:41.830Z,43.80
2018-09-04T00:52:41.985Z,43.70
2018-09-04T00:53:42.142Z,40.60
2018-09-04T00:54:42.293Z,42.20
2018-09-04T00:55:42.449Z,44.60
2018-09-04T00:56:42.604Z,39.60
2018-09-04T00:57:42.761Z,39.00
2018-09-04T00:58:42.910Z,42.00
2018-09-04T00:59:43.065Z,41.70
2018-09-04T01:00:43.220Z,36.80
2018-09-04T01:01:43.371Z,35.90
2018-09-04T01:02:43.527Z,42.20
2018-09-04T01:03:43.679Z,38.70
2018-09-04T01:04:43.834Z,40.60
2018-09-04T01:05:43.987Z,34.40
2018-09-04T01:06:44.138Z,34.90
2018-09-04T01:07:44.294Z,33.20
2018-09-04T01:08:44.446Z,34.20
2018-09-04T01:09:44.597Z,31.30
2018-09-04T01:10:44.751Z,42.40
2018-09-04T01:11:44.905Z,38.70
2018-09-04T01:12:45.060Z,32.90
2018-09-04T01:13:45.211Z,41.40
2018-09-04T01:14:45.369Z,38.60
2018-09-04T01:15:45.517Z,37.50
2018-09-04T01:16:45.679Z,44.30
2018-09-04T01:17:45.818Z,39.70
2018-09-04T01:18:45.969Z,39.60
2018-09-04T01:19:46.125Z,50.90
2018-09-04T01:20:46.279Z,43.20
2018-09-04T01:21:46.431Z,41.10
2018-09-04T01:22:46.585Z,45.10
2018-09-04T01:23:46.739Z,47.20
2018-09-04T01:24:46.893Z,36.80
2018-09-04T01:25:47.048Z,35.00
2018-09-04T01:26:47.201Z,39.90
2018-09-04T01:27:47.352Z,49.50
2018-09-04T01:28:47.503Z,53.00
2018-09-04T01:29:47.660Z,41.80
2018-09-04T01:30:47.810Z,54.20
2018-09-04T01:31:47.964Z,53.20
2018-09-04T01:32:48.115Z,53.10
2018-09-04T01:33:48.268Z,45.10
2018-09-04T01:34:48.422Z,45.20
2018-09-04T01:35:48.581Z,71.80
2018-09-04T01:36:48.729Z,50.80
2018-09-04T01:37:48.881Z,45.70
2018-09-04T01:38:49.038Z,54.70
2018-09-04T01:39:49.189Z,60.70
2018-09-04T01:40:49.346Z,50.10
2018-09-04T01:41:49.496Z,60.90
2018-09-04T01:42:49.647Z,55.50
2018-09-04T01:43:49.801Z,63.00
2018-09-04T01:44:49.955Z,70.30
2018-09-04T01:45:50.109Z,59.20
2018-09-04T01:46:50.262Z,56.00
2018-09-04T01:47:50.417Z,60.40
2018-09-04T01:48:50.566Z,49.40
2018-09-04T01:49:50.718Z,50.90
2018-09-04T01:50:50.872Z,53.80
2018-09-04T01:51:51.026Z,65.10
2018-09-04T01:52:51.182Z,57.30
2018-09-04T01:53:51.334Z,45.10
2018-09-04T01:54:51.491Z,50.20
2018-09-04T01:55:51.640Z,51.40
2018-09-04T01:56:51.797Z,53.50
2018-09-04T01:57:51.950Z,56.10
2018-09-04T01:58:52.103Z,63.10
2018-09-04T01:59:52.259Z,53.40
2018-09-04T02:00:52.412Z,44.70
2018-09-04T02:01:52.565Z,43.40
2018-09-04T02:02:52.720Z,40.50
2018-09-04T02:03:52.877Z,44.50
2018-09-04T02:04:53.029Z,39.10
2018-09-04T02:05:53.186Z,42.50
2018-09-04T02:06:53.335Z,51.10
2018-09-04T02:07:53.490Z,49.30
2018-09-04T02:08:53.643Z,61.20
2018-09-04T02:09:53.800Z,48.80
2018-09-04T02:10:53.951Z,44.80
2018-09-04T02:11:54.107Z,51.70
2018-09-04T02:12:54.263Z,51.80
2018-09-04T02:13:54.411Z,39.80
2018-09-04T02:14:54.565Z,43.70
2018-09-04T02:15:54.721Z,37.10
2018-09-04T02:16:54.872Z,41.10
2018-09-04T02:17:55.029Z,39.40
2018-09-04T02:18:55.181Z,45.60
2018-09-04T02:19:55.335Z,44.00
2018-09-04T02:20:55.493Z,63.90
2018-09-04T02:21:55.645Z,69.80
2018-09-04T02:22:55.799Z,63.20
2018-09-04T02:23:55.955Z,63.00
2018-09-04T02:24:56.107Z,57.20
2018-09-04T02:25:56.261Z,49.00
2018-09-04T02:26:56.416Z,39.90
2018-09-04T02:27:56.570Z,48.60
2018-09-04T02:28:56.724Z,34.70
2018-09-04T02:29:56.880Z,37.40
2018-09-04T02:30:57.035Z,38.00
2018-09-04T02:31:57.192Z,51.60
2018-09-04T02:32:57.394Z,35.50
2018-09-04T02:33:57.496Z,42.10
2018-09-04T02:34:57.675Z,66.00
2018-09-04T02:35:57.802Z,53.40
2018-09-04T02:36:57.955Z,54.30
2018-09-04T02:37:58.111Z,39.20
2018-09-04T02:38:58.264Z,45.50
2018-09-04T02:39:58.415Z,38.90
2018-09-04T02:40:58.571Z,51.90
2018-09-04T02:41:58.725Z,51.00
2018-09-04T02:42:58.878Z,47.90
2018-09-04T02:43:59.034Z,45.40
2018-09-04T02:44:59.186Z,64.80
2018-09-04T02:45:59.339Z,59.90
2018-09-04T02:46:59.495Z,40.70
2018-09-04T02:47:59.647Z,37.80
2018-09-04T02:48:59.801Z,42.40
2018-09-04T02:49:59.955Z,41.50
2018-09-04T02:51:00.108Z,42.10
2018-09-04T02:52:00.266Z,41.40
2018-09-04T02:53:00.417Z,74.60
2018-09-04T02:54:00.570Z,46.80
2018-09-04T02:55:00.724Z,57.50
2018-09-04T02:56:00.879Z,65.70
2018-09-04T02:57:01.032Z,54.20
2018-09-04T02:58:01.186Z,89.60
2018-09-04T02:59:01.342Z,56.60
2018-09-04T03:00:01.493Z,44.60
2018-09-04T03:01:01.645Z,63.10
2018-09-04T03:02:01.799Z,54.60
2018-09-04T03:03:01.952Z,43.80
2018-09-04T03:04:02.107Z,43.90
2018-09-04T03:05:02.260Z,51.50
2018-09-04T03:06:02.414Z,46.40
2018-09-04T03:07:02.571Z,45.00
2018-09-04T03:08:02.723Z,45.20
2018-09-04T03:09:02.878Z,41.90
2018-09-04T03:10:03.030Z,41.50
2018-09-04T03:11:03.182Z,42.20
2018-09-04T03:12:03.336Z,40.90
2018-09-04T03:13:03.491Z,51.70
2018-09-04T03:14:03.649Z,40.50
2018-09-04T03:15:03.797Z,42.10
2018-09-04T03:16:03.952Z,42.60
2018-09-04T03:17:04.107Z,43.10
2018-09-04T03:18:04.259Z,34.50
2018-09-04T03:19:04.414Z,51.20
2018-09-04T03:20:04.568Z,42.30
2018-09-04T03:21:04.719Z,42.40
2018-09-04T03:22:04.871Z,45.20
2018-09-04T03:23:05.077Z,49.90
2018-09-04T03:24:05.179Z,44.50
2018-09-04T03:25:05.335Z,45.80
2018-09-04T03:26:05.486Z,40.10
2018-09-04T03:27:05.641Z,46.80
2018-09-04T03:28:05.796Z,49.80
2018-09-04T03:29:05.980Z,46.10
2018-09-04T03:30:06.100Z,36.60
2018-09-04T03:31:06.256Z,42.10
2018-09-04T03:32:06.407Z,41.50
2018-09-04T03:33:06.561Z,45.10
2018-09-04T03:34:06.718Z,34.10
2018-09-04T03:35:06.872Z,34.90
2018-09-04T03:36:07.029Z,39.30
2018-09-04T03:37:07.183Z,39.20
2018-09-04T03:38:07.331Z,31.00
2018-09-04T03:39:07.484Z,39.10
2018-09-04T03:40:07.641Z,44.40
2018-09-04T03:41:07.792Z,34.00
2018-09-04T03:42:07.947Z,35.20
2018-09-04T03:43:08.102Z,37.10
2018-09-04T03:44:08.257Z,36.30
2018-09-04T03:45:08.408Z,39.70
2018-09-04T03:46:08.563Z,36.10
2018-09-04T03:47:08.716Z,41.10
2018-09-04T03:48:08.869Z,36.70
2018-09-04T03:49:09.022Z,39.10
2018-09-04T03:50:09.177Z,34.90
2018-09-04T03:51:09.331Z,33.90
2018-09-04T03:52:09.522Z,34.50
2018-09-04T03:53:09.636Z,36.90
2018-09-04T03:54:09.792Z,34.60
2018-09-04T03:55:09.946Z,36.70
2018-09-04T03:56:10.099Z,33.50
2018-09-04T03:57:10.254Z,31.00
2018-09-04T03:58:10.409Z,38.30
2018-09-04T03:59:10.564Z,32.20
2018-09-04T04:00:10.715Z,35.00
2018-09-04T04:01:10.873Z,43.70
2018-09-04T04:02:11.032Z,32.90
2018-09-04T04:03:11.182Z,34.60
2018-09-04T04:04:11.336Z,24.40
2018-09-04T04:05:11.489Z,31.60
2018-09-04T04:06:11.641Z,31.00
2018-09-04T04:07:11.796Z,31.90
2018-09-04T04:08:11.952Z,31.90
2018-09-04T04:09:12.106Z,30.30
2018-09-04T04:10:12.263Z,27.70
2018-09-04T04:11:12.414Z,29.80
2018-09-04T04:12:12.568Z,24.10
2018-09-04T04:13:12.720Z,30.50
2018-09-04T04:14:12.876Z,23.30
2018-09-04T04:15:13.030Z,28.40
2018-09-04T04:16:13.184Z,28.10
2018-09-04T04:17:13.341Z,25.80
2018-09-04T04:18:13.491Z,27.90
2018-09-04T04:19:13.647Z,26.00
2018-09-04T04:20:13.800Z,28.20
2018-09-04T04:21:13.956Z,31.50
2018-09-04T04:22:14.108Z,25.00
2018-09-04T04:23:14.266Z,27.90
2018-09-04T04:24:14.416Z,28.40
2018-09-04T04:25:14.568Z,26.20
2018-09-04T04:26:14.726Z,30.40
2018-09-04T04:27:14.879Z,22.20
2018-09-04T04:28:15.034Z,32.60
2018-09-04T04:29:15.188Z,23.20
2018-09-04T04:30:15.345Z,23.30
2018-09-04T04:31:15.499Z,26.30
2018-09-04T04:32:15.653Z,31.50
2018-09-04T04:33:15.897Z,30.00
2018-09-04T04:34:15.964Z,29.00
2018-09-04T04:35:16.117Z,24.20
2018-09-04T04:36:16.272Z,29.80
2018-09-04T04:37:16.424Z,29.40
2018-09-04T04:38:16.580Z,33.90
2018-09-04T04:39:16.736Z,21.90
2018-09-04T04:40:16.888Z,28.40
2018-09-04T04:41:17.050Z,36.40
2018-09-04T04:42:17.195Z,27.90
2018-09-04T04:43:17.352Z,28.40
2018-09-04T04:44:17.503Z,30.70
2018-09-04T04:45:17.658Z,26.50
2018-09-04T04:46:17.816Z,32.60
2018-09-04T04:47:17.965Z,30.40
2018-09-04T04:48:18.207Z,27.50
2018-09-04T04:49:18.276Z,39.70
2018-09-04T04:50:18.429Z,29.40
2018-09-04T04:51:18.583Z,29.20
2018-09-04T04:52:18.735Z,25.90
2018-09-04T04:53:18.891Z,29.40
2018-09-04T04:54:19.048Z,34.90
2018-09-04T04:55:19.203Z,35.20
2018-09-04T04:56:19.355Z,27.60
2018-09-04T04:57:19.511Z,41.20
2018-09-04T04:58:19.665Z,39.90
2018-09-04T04:59:19.817Z,21.50
2018-09-04T05:00:20.040Z,34.70
2018-09-04T05:01:20.126Z,29.70
2018-09-04T05:02:20.282Z,29.70
2018-09-04T05:03:20.433Z,34.40
2018-09-04T05:04:20.590Z,35.50
2018-09-04T05:05:20.746Z,29.30
2018-09-04T05:06:20.904Z,29.00
2018-09-04T05:07:21.054Z,37.70
2018-09-04T05:08:21.210Z,36.60
2018-09-04T05:09:21.365Z,30.60
2018-09-04T05:10:21.522Z,31.30
2018-09-04T05:11:21.735Z,42.50
2018-09-04T05:12:21.832Z,35.80
2018-09-04T05:13:21.984Z,41.30
2018-09-04T05:14:22.138Z,35.20
2018-09-04T05:15:22.293Z,41.00
2018-09-04T05:16:22.449Z,37.00
2018-09-04T05:17:22.604Z,43.10
2018-09-04T05:18:22.758Z,41.30
2018-09-04T05:19:22.913Z,44.90
2018-09-04T05:20:23.071Z,26.70
2018-09-04T05:21:23.220Z,41.70
2018-09-04T05:22:23.375Z,41.20
2018-09-04T05:23:23.530Z,33.50
2018-09-04T05:24:23.688Z,38.60
2018-09-04T05:25:23.838Z,29.10
2018-09-04T05:26:23.997Z,36.30
2018-09-04T05:27:24.158Z,38.70
2018-09-04T05:28:24.306Z,28.60
2018-09-04T05:29:24.485Z,36.90
2018-09-04T05:30:24.617Z,30.30
2018-09-04T05:31:24.768Z,35.00
2018-09-04T05:32:24.924Z,30.00
2018-09-04T05:33:25.083Z,32.70
2018-09-04T05:34:25.234Z,33.70
2018-09-04T05:35:25.385Z,30.00
2018-09-04T05:36:25.542Z,31.90
2018-09-04T05:37:25.693Z,34.70
2018-09-04T05:38:25.847Z,37.60
2018-09-04T05:39:26.001Z,35.00
2018-09-04T05:40:26.159Z,40.30
2018-09-04T05:41:26.310Z,31.70
2018-09-04T05:42:26.468Z,33.50
2018-09-04T05:43:26.623Z,29.40
2018-09-04T05:44:26.778Z,35.90
2018-09-04T05:45:26.932Z,35.00
2018-09-04T05:46:27.080Z,36.10
2018-09-04T05:47:27.232Z,38.30
2018-09-04T05:48:27.388Z,30.80
2018-09-04T05:49:27.541Z,36.80
2018-09-04T05:50:27.696Z,33.00
2018-09-04T05:51:27.848Z,28.50
2018-09-04T05:52:28.003Z,32.00
2018-09-04T05:53:28.160Z,37.70
2018-09-04T05:54:28.312Z,29.70
2018-09-04T05:55:28.466Z,38.30
2018-09-04T05:56:28.622Z,31.20
2018-09-04T05:57:28.776Z,32.80
2018-09-04T05:58:28.932Z,29.30
2018-09-04T05:59:29.089Z,30.50
2018-09-04T06:00:29.248Z,31.30
2018-09-04T06:01:29.400Z,33.40
2018-09-04T06:02:29.554Z,29.60
2018-09-04T06:03:29.711Z,36.10
2018-09-04T06:04:29.863Z,34.00
2018-09-04T06:05:30.018Z,33.50
2018-09-04T06:06:30.171Z,33.20
2018-09-04T06:07:30.325Z,33.20
2018-09-04T06:08:30.478Z,30.60
2018-09-04T06:09:30.633Z,33.60
2018-09-04T06:10:30.788Z,32.30
2018-09-04T06:11:30.943Z,36.00
2018-09-04T06:12:31.099Z,35.10
2018-09-04T06:13:31.287Z,32.60
2018-09-04T06:14:31.408Z,34.20
2018-09-04T06:15:31.564Z,36.30
2018-09-04T06:16:31.719Z,29.60
2018-09-04T06:17:31.873Z,38.50
2018-09-04T06:18:32.027Z,36.80
2018-09-04T06:19:32.182Z,30.70
2018-09-04T06:20:32.338Z,32.00
2018-09-04T06:21:32.492Z,32.10
2018-09-04T06:22:32.643Z,30.60
2018-09-04T06:23:32.800Z,33.70
2018-09-04T06:24:32.957Z,31.00
2018-09-04T06:25:33.111Z,32.40
2018-09-04T06:26:33.265Z,34.30
2018-09-04T06:27:33.416Z,35.50
2018-09-04T06:28:33.572Z,33.90
2018-09-04T06:29:33.782Z,33.90
2018-09-04T06:30:33.878Z,29.00
2018-09-04T06:31:34.034Z,31.10
2018-09-04T06:32:34.191Z,31.80
2018-09-04T06:33:34.347Z,31.90
2018-09-04T06:34:34.503Z,31.90
2018-09-04T06:35:34.702Z,31.20
2018-09-04T06:36:34.873Z,34.10
2018-09-04T06:37:34.968Z,31.20
2018-09-04T06:38:35.122Z,35.10
2018-09-04T06:39:35.279Z,31.70
2018-09-04T06:40:35.434Z,29.10
2018-09-04T06:41:35.588Z,34.20
2018-09-04T06:42:35.743Z,31.20
2018-09-04T06:43:35.893Z,27.20
2018-09-04T06:44:36.045Z,26.00
2018-09-04T06:45:36.203Z,27.60
2018-09-04T06:46:36.372Z,26.40
2018-09-04T06:47:36.509Z,34.60
2018-09-04T06:48:36.664Z,27.80
2018-09-04T06:49:36.819Z,35.50
2018-09-04T06:50:36.976Z,29.10
2018-09-04T06:51:37.129Z,27.60
2018-09-04T06:52:37.288Z,26.70
2018-09-04T06:53:37.440Z,25.90
2018-09-04T06:54:37.641Z,27.70
2018-09-04T06:55:37.749Z,26.10
2018-09-04T06:56:37.902Z,26.30
2018-09-04T06:57:38.059Z,27.90
2018-09-04T06:58:38.216Z,23.60
2018-09-04T06:59:38.370Z,24.70
2018-09-04T07:00:38.525Z,27.80
2018-09-04T07:01:38.678Z,29.00
2018-09-04T07:02:38.835Z,25.60
2018-09-04T07:03:38.990Z,27.20
2018-09-04T07:04:39.146Z,27.60
2018-09-04T07:05:39.300Z,27.10
2018-09-04T07:06:39.456Z,25.60
2018-09-04T07:07:39.610Z,26.10
2018-09-04T07:08:39.767Z,27.30
2018-09-04T07:09:39.919Z,29.90
2018-09-04T07:10:40.079Z,28.10
2018-09-04T07:11:40.233Z,32.10
2018-09-04T07:12:40.390Z,29.50
2018-09-04T07:13:40.547Z,27.40
2018-09-04T07:14:40.698Z,28.80
2018-09-04T07:15:40.855Z,32.00
2018-09-04T07:16:41.009Z,31.50
2018-09-04T07:17:41.166Z,34.30
2018-09-04T07:18:41.323Z,36.50
2018-09-04T07:19:41.478Z,32.40
2018-09-04T07:20:41.632Z,27.20
2018-09-04T07:21:41.791Z,28.40
2018-09-04T07:22:41.947Z,30.10
2018-09-04T07:23:42.108Z,31.10
2018-09-04T07:24:42.261Z,29.40
2018-09-04T07:25:42.415Z,30.00
2018-09-04T07:26:42.570Z,31.30
2018-09-04T07:27:42.726Z,31.20
2018-09-04T07:28:42.881Z,27.20
2018-09-04T07:29:43.038Z,26.90
2018-09-04T07:30:43.195Z,29.70
2018-09-04T07:31:43.351Z,27.70
2018-09-04T07:32:43.506Z,33.90
2018-09-04T07:33:43.661Z,33.90
2018-09-04T07:34:43.817Z,35.90
2018-09-04T07:35:44.019Z,35.60
2018-09-04T07:36:44.129Z,32.90
2018-09-04T07:37:44.283Z,28.90
2018-09-04T07:38:44.438Z,24.90
2018-09-04T07:39:44.591Z,23.20
2018-09-04T07:40:44.755Z,27.60
2018-09-04T07:41:44.955Z,25.50
2018-09-04T07:42:45.063Z,25.50
2018-09-04T07:43:45.222Z,23.10
2018-09-04T07:44:45.372Z,26.70
2018-09-04T07:45:45.525Z,26.30
2018-09-04T07:46:45.680Z,27.60
2018-09-04T07:47:45.837Z,26.20
2018-09-04T07:48:45.994Z,27.50
2018-09-04T07:49:46.149Z,27.10
2018-09-04T07:50:46.303Z,27.30
2018-09-04T07:51:46.461Z,28.60
2018-09-04T07:52:46.617Z,32.80
2018-09-04T07:53:46.816Z,29.60
2018-09-04T07:54:46.927Z,28.50
2018-09-04T07:55:47.104Z,33.50
2018-09-04T07:56:47.243Z,28.10
2018-09-04T07:57:47.396Z,30.80
2018-09-04T07:58:47.552Z,30.30
2018-09-04T07:59:47.709Z,28.60
2018-09-04T08:00:47.901Z,28.40
2018-09-04T08:01:48.026Z,28.80
2018-09-04T08:02:48.179Z,31.40
2018-09-04T08:03:48.336Z,29.40
2018-09-04T08:04:48.487Z,30.50
2018-09-04T08:05:48.643Z,28.80
2018-09-04T08:06:48.798Z,28.60
2018-09-04T08:07:48.957Z,29.70
2018-09-04T08:08:49.112Z,28.90
2018-09-04T08:09:49.266Z,32.40
2018-09-04T08:10:49.423Z,32.50
2018-09-04T08:11:49.580Z,33.00
2018-09-04T08:12:49.735Z,33.70
2018-09-04T08:13:49.891Z,34.30
2018-09-04T08:14:50.048Z,33.10
2018-09-04T08:15:50.205Z,32.10
2018-09-04T08:16:50.362Z,33.00
2018-09-04T08:17:50.518Z,30.70
2018-09-04T08:18:50.670Z,29.90
2018-09-04T08:19:50.825Z,31.60
2018-09-04T08:20:51.049Z,32.10
2018-09-04T08:21:51.139Z,28.00
2018-09-04T08:22:51.295Z,31.40
2018-09-04T08:23:51.452Z,31.30
2018-09-04T08:24:51.607Z,32.60
2018-09-04T08:25:51.767Z,30.60
2018-09-04T08:26:51.923Z,32.60
2018-09-04T08:27:52.079Z,32.70
2018-09-04T08:28:52.235Z,31.00
2018-09-04T08:29:52.394Z,32.20
2018-09-04T08:30:52.549Z,30.50
2018-09-04T08:31:52.709Z,32.00
2018-09-04T08:32:52.884Z,29.40
2018-09-04T08:33:53.030Z,29.10
2018-09-04T08:34:53.180Z,31.00
2018-09-04T08:35:53.335Z,27.20
2018-09-04T08:36:53.495Z,29.00
2018-09-04T08:37:53.646Z,28.60
2018-09-04T08:38:53.804Z,28.20
2018-09-04T08:39:53.969Z,29.70
2018-09-04T08:40:54.120Z,30.50
2018-09-04T08:41:54.278Z,29.50
2018-09-04T08:42:54.435Z,27.50
2018-09-04T08:43:54.592Z,27.80
2018-09-04T08:44:54.749Z,30.10
2018-09-04T08:45:54.908Z,32.10
2018-09-04T08:46:55.065Z,29.20
2018-09-04T08:47:55.224Z,29.20
2018-09-04T08:48:55.378Z,29.80
2018-09-04T08:49:55.535Z,30.40
2018-09-04T08:50:55.696Z,31.00
2018-09-04T08:51:55.853Z,30.30
2018-09-04T08:52:56.010Z,29.90
2018-09-04T08:53:56.170Z,30.70
2018-09-04T08:54:56.321Z,28.50
2018-09-04T08:55:56.481Z,30.20
2018-09-04T08:56:56.636Z,28.80
2018-09-04T08:57:56.795Z,28.70
2018-09-04T08:58:56.952Z,26.70
2018-09-04T08:59:57.109Z,28.50
2018-09-04T09:00:57.269Z,28.80
2018-09-04T09:01:57.429Z,28.70
2018-09-04T09:02:57.585Z,29.70
2018-09-04T09:03:57.746Z,26.90
2018-09-04T09:04:57.899Z,29.60
2018-09-04T09:05:58.058Z,28.90
2018-09-04T09:06:58.217Z,29.30
2018-09-04T09:07:58.379Z,28.60
2018-09-04T09:08:58.536Z,29.40
2018-09-04T09:09:58.743Z,30.30
2018-09-04T09:10:58.850Z,30.20
2018-09-04T09:11:59.008Z,32.30
2018-09-04T09:12:59.163Z,31.50
2018-09-04T09:13:59.320Z,31.90
2018-09-04T09:14:59.480Z,28.30
2018-09-04T09:15:59.637Z,28.70
2018-09-04T09:16:59.794Z,27.90
2018-09-04T09:17:59.956Z,28.90
2018-09-04T09:19:00.113Z,27.10
2018-09-04T09:20:00.273Z,29.10
2018-09-04T09:21:00.436Z,28.30
2018-09-04T09:22:00.588Z,29.10
2018-09-04T09:23:00.812Z,26.00
2018-09-04T09:24:00.907Z,29.60
2018-09-04T09:25:01.060Z,28.50
2018-09-04T09:26:01.217Z,27.40
2018-09-04T09:27:01.376Z,25.40
2018-09-04T09:28:01.534Z,30.90
2018-09-04T09:29:01.696Z,30.50
2018-09-04T09:30:01.855Z,26.60
2018-09-04T09:31:02.018Z,28.20
2018-09-04T09:32:02.173Z,27.00
2018-09-04T09:33:02.335Z,28.30
2018-09-04T09:34:02.491Z,28.40
2018-09-04T09:35:02.701Z,27.60
2018-09-04T09:36:02.806Z,25.20
2018-09-04T09:37:03.032Z,26.70
2018-09-04T09:38:03.122Z,28.00
2018-09-04T09:39:03.279Z,28.80
2018-09-04T09:40:03.438Z,26.80
2018-09-04T09:41:03.596Z,26.90
2018-09-04T09:42:03.757Z,27.30
2018-09-04T09:43:03.914Z,28.70
2018-09-04T09:44:04.072Z,24.20
2018-09-04T09:45:04.232Z,26.60
2018-09-04T09:46:04.389Z,25.50
2018-09-04T09:47:04.548Z,29.30
2018-09-04T09:48:04.707Z,29.40
2018-09-04T09:49:04.866Z,26.30
2018-09-04T09:50:05.023Z,25.00
2018-09-04T09:51:05.181Z,25.80
2018-09-04T09:52:05.340Z,25.00
2018-09-04T09:53:05.588Z,23.70
2018-09-04T09:54:05.715Z,24.80
2018-09-04T09:55:05.817Z,23.80
2018-09-04T09:56:06.036Z,25.60
2018-09-04T09:57:06.134Z,21.90
2018-09-04T09:58:06.326Z,22.80
2018-09-04T09:59:06.480Z,24.10
2018-09-04T10:00:06.645Z,24.40
2018-09-04T10:01:06.812Z,22.10
2018-09-04T10:02:06.958Z,21.90
2018-09-04T10:03:07.113Z,22.20
2018-09-04T10:04:07.410Z,23.00
2018-09-04T10:05:07.431Z,22.60
2018-09-04T10:06:07.590Z,23.00
2018-09-04T10:07:07.748Z,22.00
2018-09-04T10:08:07.991Z,21.30
2018-09-04T10:09:08.062Z,22.40
2018-09-04T10:10:08.267Z,21.50
2018-09-04T10:11:08.458Z,21.30
2018-09-04T10:12:08.541Z,20.90
2018-09-04T10:13:08.700Z,21.60
2018-09-04T10:14:08.860Z,21.50
2018-09-04T10:15:09.018Z,21.00
2018-09-04T10:16:09.180Z,21.80
2018-09-04T10:17:09.338Z,20.20
2018-09-04T10:18:09.498Z,19.20
2018-09-04T10:19:09.654Z,18.60
2018-09-04T10:20:09.814Z,18.50
2018-09-04T10:21:10.014Z,21.00
2018-09-04T10:22:10.135Z,21.30
2018-09-04T10:23:10.291Z,21.40
2018-09-04T10:24:10.449Z,19.10
2018-09-04T10:25:10.608Z,18.90
2018-09-04T10:26:10.770Z,22.00
2018-09-04T10:27:10.932Z,18.20
2018-09-04T10:28:11.085Z,20.70
2018-09-04T10:29:11.247Z,21.50
2018-09-04T10:30:11.405Z,17.10
2018-09-04T10:31:11.565Z,17.70
2018-09-04T10:32:11.725Z,17.10
2018-09-04T10:33:11.885Z,21.00
2018-09-04T10:34:12.044Z,18.20
2018-09-04T10:35:12.203Z,20.20
2018-09-04T10:36:12.392Z,16.70
2018-09-04T10:37:12.525Z,14.50
2018-09-04T10:38:12.679Z,18.50
2018-09-04T10:39:12.839Z,18.20
2018-09-04T10:40:12.999Z,15.20
2018-09-04T10:41:13.157Z,16.90
2018-09-04T10:42:13.315Z,17.70
2018-09-04T10:43:13.474Z,15.80
2018-09-04T10:44:13.671Z,17.70
2018-09-04T10:45:13.795Z,15.70
2018-09-04T10:46:13.958Z,16.60
2018-09-04T10:47:14.117Z,14.20
2018-09-04T10:48:14.282Z,17.10
2018-09-04T10:49:14.439Z,14.90
2018-09-04T10:50:14.595Z,16.30
2018-09-04T10:51:14.755Z,14.80
2018-09-04T10:52:14.917Z,15.40
2018-09-04T10:53:15.074Z,14.90
2018-09-04T10:54:15.234Z,16.10
2018-09-04T10:55:15.397Z,15.90
2018-09-04T10:56:15.556Z,16.90
2018-09-04T10:57:15.715Z,13.10
2018-09-04T10:58:15.876Z,17.80
2018-09-04T10:59:16.035Z,15.40
2018-09-04T11:00:16.197Z,16.30
2018-09-04T11:01:16.359Z,17.00
2018-09-04T11:02:16.567Z,16.70
2018-09-04T11:03:16.678Z,15.90
2018-09-04T11:04:16.838Z,15.10
2018-09-04T11:05:16.997Z,15.20
2018-09-04T11:06:17.160Z,14.80
2018-09-04T11:07:17.319Z,14.90
2018-09-04T11:08:17.477Z,16.90
2018-09-04T11:09:17.706Z,15.10
2018-09-04T11:10:17.799Z,14.30
2018-09-04T11:11:17.957Z,14.30
2018-09-04T11:12:18.118Z,14.90
2018-09-04T11:13:18.277Z,16.00
2018-09-04T11:14:18.441Z,15.10
2018-09-04T11:15:18.604Z,15.70
2018-09-04T11:16:18.764Z,12.60
2018-09-04T11:17:18.920Z,13.00
2018-09-04T11:18:19.082Z,11.40
2018-09-04T11:19:19.240Z,12.30
2018-09-04T11:20:19.402Z,11.90
2018-09-04T11:21:19.561Z,12.90
2018-09-04T11:22:19.725Z,13.80
2018-09-04T11:23:19.883Z,13.50
2018-09-04T11:24:20.042Z,11.30
2018-09-04T11:25:20.203Z,14.30
2018-09-04T11:26:20.371Z,11.70
2018-09-04T11:27:20.526Z,15.80
2018-09-04T11:28:20.689Z,12.40
2018-09-04T11:29:20.846Z,14.10
2018-09-04T11:30:21.007Z,11.70
2018-09-04T11:31:21.168Z,11.60
2018-09-04T11:32:21.329Z,10.90
2018-09-04T11:33:21.489Z,11.00
2018-09-04T11:34:21.652Z,13.90
2018-09-04T11:35:21.812Z,10.40
2018-09-04T11:36:21.971Z,9.70
2018-09-04T11:37:22.131Z,13.00
2018-09-04T11:38:22.292Z,8.90
2018-09-04T11:39:22.451Z,8.60
2018-09-04T11:40:22.608Z,11.70
2018-09-04T11:41:22.767Z,12.60
2018-09-04T11:42:22.930Z,10.00
2018-09-04T11:43:23.092Z,10.40
2018-09-04T11:44:23.253Z,9.50
2018-09-04T11:45:23.413Z,9.20
2018-09-04T11:46:23.574Z,10.60
2018-09-04T11:47:23.735Z,11.00
2018-09-04T11:48:23.895Z,11.10
2018-09-04T11:49:24.054Z,9.60
2018-09-04T11:50:24.215Z,10.00
2018-09-04T11:51:24.380Z,10.50
2018-09-04T11:52:24.581Z,10.60
2018-09-04T11:53:24.699Z,12.00
2018-09-04T11:54:24.860Z,12.00
2018-09-04T11:55:25.024Z,9.30
2018-09-04T11:56:25.183Z,13.10
2018-09-04T11:57:25.344Z,9.40
2018-09-04T11:58:25.504Z,10.50
2018-09-04T11:59:25.714Z,10.20
2018-09-04T12:00:25.826Z,12.40
2018-09-04T12:01:25.988Z,11.10
2018-09-04T12:02:26.150Z,9.50
2018-09-04T12:03:26.310Z,9.50
2018-09-04T12:04:26.473Z,9.80
2018-09-04T12:05:26.636Z,17.80
2018-09-04T12:06:26.808Z,10.90
2018-09-04T12:07:26.957Z,10.90
2018-09-04T12:08:27.116Z,10.90
2018-09-04T12:09:27.279Z,9.60
2018-09-04T12:10:27.438Z,12.00
2018-09-04T12:11:27.599Z,11.20
2018-09-04T12:12:27.798Z,10.80
2018-09-04T12:13:27.924Z,11.10
2018-09-04T12:14:28.084Z,11.60
2018-09-04T12:15:28.243Z,11.10
2018-09-04T12:16:28.406Z,9.80
2018-09-04T12:17:28.566Z,10.70
2018-09-04T12:18:28.726Z,10.00
2018-09-04T12:19:28.892Z,8.70
2018-09-04T12:20:29.055Z,10.90
2018-09-04T12:21:29.213Z,9.20
2018-09-04T12:22:29.375Z,10.70
2018-09-04T12:23:29.534Z,9.00
2018-09-04T12:24:29.696Z,9.60
2018-09-04T12:25:29.859Z,8.70
2018-09-04T12:26:30.026Z,9.40
2018-09-04T12:27:30.183Z,9.10
2018-09-04T12:28:30.348Z,10.50
2018-09-04T12:29:30.504Z,9.50
2018-09-04T12:30:30.671Z,9.10
2018-09-04T12:31:30.829Z,9.80
2018-09-04T12:32:30.992Z,9.70
2018-09-04T12:33:31.157Z,10.00
2018-09-04T12:34:31.316Z,9.50
2018-09-04T12:35:31.478Z,9.30
2018-09-04T12:36:31.691Z,9.30
2018-09-04T12:37:31.801Z,9.20
2018-09-04T12:38:31.960Z,8.60
2018-09-04T12:39:32.124Z,9.80
2018-09-04T12:40:32.283Z,7.80
2018-09-04T12:41:32.446Z,8.10
2018-09-04T12:42:32.612Z,8.60
2018-09-04T12:43:32.772Z,7.30
2018-09-04T12:44:32.934Z,7.60
2018-09-04T12:45:33.104Z,9.80
2018-09-04T12:46:33.260Z,9.40
2018-09-04T12:47:33.421Z,7.40
2018-09-04T12:48:33.601Z,8.20
2018-09-04T12:49:33.745Z,7.10
2018-09-04T12:50:33.905Z,8.20
2018-09-04T12:51:34.067Z,9.10
2018-09-04T12:52:34.234Z,10.60
2018-09-04T12:53:34.392Z,9.60
2018-09-04T12:54:34.566Z,7.80
2018-09-04T12:55:34.717Z,8.90
2018-09-04T12:56:34.877Z,7.20